sensor_id;sensor_type;location;lat;lon;timestamp;temperature;humidity
40538;DHT22;27925;41.874;12.526;2022-12-29T00:00:06;12.20;90.70
40538;DHT22;27925;41.874;12.526;2022-12-29T00:02:32;12.10;90.80
40538;DHT22;27925;41.874;12.526;2022-12-29T00:04:58;12.10;90.80
40538;DHT22;27925;41.874;12.526;2022-12-29T00:07:24;12.10;90.90
40538;DHT22;27925;41.874;12.526;2022-12-29T00:09:49;12.10;90.90
40538;DHT22;27925;41.874;12.526;2022-12-29T00:12:15;12.10;90.90
40538;DHT22;27925;41.874;12.526;2022-12-29T00:14:40;12.00;90.80
40538;DHT22;27925;41.874;12.526;2022-12-29T00:17:24;11.90;90.90
40538;DHT22;27925;41.874;12.526;2022-12-29T00:19:51;11.80;91.00
40538;DHT22;27925;41.874;12.526;2022-12-29T00:22:35;11.80;91.00
40538;DHT22;27925;41.874;12.526;2022-12-29T00:25:19;11.80;91.10
40538;DHT22;27925;41.874;12.526;2022-12-29T00:28:06;11.90;91.20
40538;DHT22;27925;41.874;12.526;2022-12-29T00:30:51;11.80;91.00
40538;DHT22;27925;41.874;12.526;2022-12-29T00:33:35;11.80;91.10
40538;DHT22;27925;41.874;12.526;2022-12-29T00:36:36;11.80;91.00
40538;DHT22;27925;41.874;12.526;2022-12-29T00:39:12;11.80;91.30
40538;DHT22;27925;41.874;12.526;2022-12-29T00:42:04;11.80;91.00
40538;DHT22;27925;41.874;12.526;2022-12-29T00:45:05;11.80;91.10
40538;DHT22;27925;41.874;12.526;2022-12-29T00:47:31;11.90;91.20
40538;DHT22;27925;41.874;12.526;2022-12-29T00:49:57;11.90;91.00
40538;DHT22;27925;41.874;12.526;2022-12-29T00:52:22;11.90;91.10
40538;DHT22;27925;41.874;12.526;2022-12-29T00:54:48;11.80;91.10
40538;DHT22;27925;41.874;12.526;2022-12-29T00:57:14;11.80;91.20
40538;DHT22;27925;41.874;12.526;2022-12-29T00:59:41;11.80;91.20
40538;DHT22;27925;41.874;12.526;2022-12-29T01:02:09;11.80;91.20
40538;DHT22;27925;41.874;12.526;2022-12-29T01:04:35;11.90;91.20
40538;DHT22;27925;41.874;12.526;2022-12-29T01:07:01;11.90;91.10
40538;DHT22;27925;41.874;12.526;2022-12-29T01:09:27;11.80;91.00
40538;DHT22;27925;41.874;12.526;2022-12-29T01:12:11;11.80;91.00
40538;DHT22;27925;41.874;12.526;2022-12-29T01:14:37;11.80;91.10
40538;DHT22;27925;41.874;12.526;2022-12-29T01:17:03;11.80;91.10
40538;DHT22;27925;41.874;12.526;2022-12-29T01:19:30;11.80;91.10
40538;DHT22;27925;41.874;12.526;2022-12-29T01:21:56;11.80;91.10
40538;DHT22;27925;41.874;12.526;2022-12-29T01:24:22;11.80;91.00
40538;DHT22;27925;41.874;12.526;2022-12-29T01:26:48;11.80;91.00
40538;DHT22;27925;41.874;12.526;2022-12-29T01:29:14;11.70;91.00
40538;DHT22;27925;41.874;12.526;2022-12-29T01:31:40;11.70;91.00
40538;DHT22;27925;41.874;12.526;2022-12-29T01:34:06;11.80;91.00
40538;DHT22;27925;41.874;12.526;2022-12-29T01:36:32;11.80;91.00
40538;DHT22;27925;41.874;12.526;2022-12-29T01:38:58;11.80;91.00
40538;DHT22;27925;41.874;12.526;2022-12-29T01:41:24;11.80;90.90
40538;DHT22;27925;41.874;12.526;2022-12-29T01:43:51;11.80;91.00
40538;DHT22;27925;41.874;12.526;2022-12-29T01:46:41;11.80;91.00
40538;DHT22;27925;41.874;12.526;2022-12-29T01:49:15;11.70;90.80
40538;DHT22;27925;41.874;12.526;2022-12-29T01:52:02;11.70;90.70
40538;DHT22;27925;41.874;12.526;2022-12-29T01:54:44;11.70;90.80
40538;DHT22;27925;41.874;12.526;2022-12-29T01:57:16;11.70;90.80
40538;DHT22;27925;41.874;12.526;2022-12-29T01:59:48;11.70;90.80
40538;DHT22;27925;41.874;12.526;2022-12-29T02:02:16;11.70;90.80
40538;DHT22;27925;41.874;12.526;2022-12-29T02:04:43;11.60;90.70
40538;DHT22;27925;41.874;12.526;2022-12-29T02:07:21;11.60;90.80
40538;DHT22;27925;41.874;12.526;2022-12-29T02:09:49;11.60;90.90
40538;DHT22;27925;41.874;12.526;2022-12-29T02:12:20;11.60;90.80
40538;DHT22;27925;41.874;12.526;2022-12-29T02:14:48;11.50;90.70
40538;DHT22;27925;41.874;12.526;2022-12-29T02:17:38;11.50;90.80
40538;DHT22;27925;41.874;12.526;2022-12-29T02:23:30;11.40;90.80
40538;DHT22;27925;41.874;12.526;2022-12-29T02:26:03;11.40;90.80
40538;DHT22;27925;41.874;12.526;2022-12-29T02:40:16;11.20;90.80
40538;DHT22;27925;41.874;12.526;2022-12-29T02:45:57;11.10;90.90
40538;DHT22;27925;41.874;12.526;2022-12-29T02:51:31;11.10;90.80
40538;DHT22;27925;41.874;12.526;2022-12-29T02:53:58;11.10;91.00
40538;DHT22;27925;41.874;12.526;2022-12-29T02:56:43;11.10;91.00
40538;DHT22;27925;41.874;12.526;2022-12-29T02:59:09;11.10;91.00
40538;DHT22;27925;41.874;12.526;2022-12-29T03:15:58;11.40;90.80
40538;DHT22;27925;41.874;12.526;2022-12-29T03:18:40;11.50;90.90
40538;DHT22;27925;41.874;12.526;2022-12-29T03:24:20;11.60;90.70
40538;DHT22;27925;41.874;12.526;2022-12-29T03:26:47;11.70;90.70
40538;DHT22;27925;41.874;12.526;2022-12-29T03:29:16;11.60;90.70
40538;DHT22;27925;41.874;12.526;2022-12-29T03:31:44;11.60;90.70
40538;DHT22;27925;41.874;12.526;2022-12-29T03:34:12;11.60;90.70
40538;DHT22;27925;41.874;12.526;2022-12-29T03:36:48;11.60;90.80
40538;DHT22;27925;41.874;12.526;2022-12-29T03:39:14;11.50;90.80
40538;DHT22;27925;41.874;12.526;2022-12-29T03:41:43;11.50;90.90
40538;DHT22;27925;41.874;12.526;2022-12-29T03:44:11;11.50;90.90
40538;DHT22;27925;41.874;12.526;2022-12-29T03:46:37;11.50;90.80
40538;DHT22;27925;41.874;12.526;2022-12-29T03:49:03;11.50;90.90
40538;DHT22;27925;41.874;12.526;2022-12-29T03:51:29;11.50;91.10
40538;DHT22;27925;41.874;12.526;2022-12-29T03:53:55;11.50;90.90
40538;DHT22;27925;41.874;12.526;2022-12-29T03:56:20;11.60;90.90
40538;DHT22;27925;41.874;12.526;2022-12-29T03:58:46;11.60;90.90
40538;DHT22;27925;41.874;12.526;2022-12-29T04:01:12;11.60;90.90
40538;DHT22;27925;41.874;12.526;2022-12-29T04:03:37;11.60;90.90
40538;DHT22;27925;41.874;12.526;2022-12-29T04:06:04;11.60;90.90
40538;DHT22;27925;41.874;12.526;2022-12-29T04:08:30;11.70;91.00
40538;DHT22;27925;41.874;12.526;2022-12-29T04:10:55;11.60;90.80
40538;DHT22;27925;41.874;12.526;2022-12-29T04:13:21;11.70;90.90
40538;DHT22;27925;41.874;12.526;2022-12-29T04:15:47;11.80;90.80
40538;DHT22;27925;41.874;12.526;2022-12-29T04:18:13;11.80;90.90
40538;DHT22;27925;41.874;12.526;2022-12-29T04:20:38;11.80;90.70
40538;DHT22;27925;41.874;12.526;2022-12-29T04:23:22;11.90;90.70
40538;DHT22;27925;41.874;12.526;2022-12-29T04:25:48;11.90;90.80
40538;DHT22;27925;41.874;12.526;2022-12-29T04:28:15;12.00;90.80
40538;DHT22;27925;41.874;12.526;2022-12-29T04:30:42;11.90;90.70
40538;DHT22;27925;41.874;12.526;2022-12-29T04:33:08;11.90;90.80
40538;DHT22;27925;41.874;12.526;2022-12-29T04:35:33;11.90;90.80
40538;DHT22;27925;41.874;12.526;2022-12-29T04:37:59;11.90;90.70
40538;DHT22;27925;41.874;12.526;2022-12-29T04:40:25;12.00;90.80
40538;DHT22;27925;41.874;12.526;2022-12-29T04:42:51;12.00;90.70
40538;DHT22;27925;41.874;12.526;2022-12-29T04:45:17;12.00;90.70
40538;DHT22;27925;41.874;12.526;2022-12-29T04:47:42;12.00;90.60
40538;DHT22;27925;41.874;12.526;2022-12-29T04:50:08;12.00;90.70
40538;DHT22;27925;41.874;12.526;2022-12-29T04:52:35;11.90;90.60
40538;DHT22;27925;41.874;12.526;2022-12-29T04:55:00;11.90;90.70
40538;DHT22;27925;41.874;12.526;2022-12-29T04:57:26;11.80;90.90
40538;DHT22;27925;41.874;12.526;2022-12-29T04:59:52;11.70;91.00
40538;DHT22;27925;41.874;12.526;2022-12-29T05:02:18;11.60;91.00
40538;DHT22;27925;41.874;12.526;2022-12-29T05:04:44;11.60;91.00
40538;DHT22;27925;41.874;12.526;2022-12-29T05:07:10;11.60;91.00
40538;DHT22;27925;41.874;12.526;2022-12-29T05:09:35;11.60;91.00
40538;DHT22;27925;41.874;12.526;2022-12-29T05:12:01;11.60;91.10
40538;DHT22;27925;41.874;12.526;2022-12-29T05:14:27;11.60;91.00
40538;DHT22;27925;41.874;12.526;2022-12-29T05:16:52;11.60;91.10
40538;DHT22;27925;41.874;12.526;2022-12-29T05:19:18;11.50;91.00
40538;DHT22;27925;41.874;12.526;2022-12-29T05:21:44;11.50;91.10
40538;DHT22;27925;41.874;12.526;2022-12-29T05:24:10;11.50;91.10
40538;DHT22;27925;41.874;12.526;2022-12-29T05:26:35;11.60;91.20
40538;DHT22;27925;41.874;12.526;2022-12-29T05:29:01;11.60;91.10
40538;DHT22;27925;41.874;12.526;2022-12-29T05:31:27;11.70;91.10
40538;DHT22;27925;41.874;12.526;2022-12-29T05:33:53;11.70;91.10
40538;DHT22;27925;41.874;12.526;2022-12-29T05:36:19;11.70;91.00
40538;DHT22;27925;41.874;12.526;2022-12-29T05:38:44;11.70;90.90
40538;DHT22;27925;41.874;12.526;2022-12-29T05:41:10;11.70;90.90
40538;DHT22;27925;41.874;12.526;2022-12-29T05:43:36;11.60;91.00
40538;DHT22;27925;41.874;12.526;2022-12-29T05:46:03;11.70;91.00
40538;DHT22;27925;41.874;12.526;2022-12-29T05:48:28;11.70;90.90
40538;DHT22;27925;41.874;12.526;2022-12-29T05:50:54;11.80;91.10
40538;DHT22;27925;41.874;12.526;2022-12-29T05:53:20;11.80;90.90
40538;DHT22;27925;41.874;12.526;2022-12-29T05:55:48;11.90;91.00
40538;DHT22;27925;41.874;12.526;2022-12-29T05:58:15;12.00;91.00
40538;DHT22;27925;41.874;12.526;2022-12-29T06:00:41;12.00;90.90
40538;DHT22;27925;41.874;12.526;2022-12-29T06:03:07;12.00;90.90
40538;DHT22;27925;41.874;12.526;2022-12-29T06:05:33;12.00;90.80
40538;DHT22;27925;41.874;12.526;2022-12-29T06:07:59;11.90;90.80
40538;DHT22;27925;41.874;12.526;2022-12-29T06:10:25;11.90;90.90
40538;DHT22;27925;41.874;12.526;2022-12-29T06:12:51;11.90;90.90
40538;DHT22;27925;41.874;12.526;2022-12-29T06:15:17;11.80;90.90
40538;DHT22;27925;41.874;12.526;2022-12-29T06:17:42;11.80;90.80
40538;DHT22;27925;41.874;12.526;2022-12-29T06:20:09;11.80;90.90
40538;DHT22;27925;41.874;12.526;2022-12-29T06:22:35;11.80;91.00
40538;DHT22;27925;41.874;12.526;2022-12-29T06:25:01;11.70;90.90
40538;DHT22;27925;41.874;12.526;2022-12-29T06:27:27;11.70;91.10
40538;DHT22;27925;41.874;12.526;2022-12-29T06:29:53;11.70;91.30
40538;DHT22;27925;41.874;12.526;2022-12-29T06:32:19;11.70;91.30
40538;DHT22;27925;41.874;12.526;2022-12-29T06:34:45;11.70;91.20
40538;DHT22;27925;41.874;12.526;2022-12-29T06:37:11;11.70;91.20
40538;DHT22;27925;41.874;12.526;2022-12-29T06:39:36;11.70;91.30
40538;DHT22;27925;41.874;12.526;2022-12-29T06:42:02;11.60;91.20
40538;DHT22;27925;41.874;12.526;2022-12-29T06:44:28;11.60;91.20
40538;DHT22;27925;41.874;12.526;2022-12-29T06:46:54;11.60;91.50
40538;DHT22;27925;41.874;12.526;2022-12-29T06:49:19;11.60;91.40
40538;DHT22;27925;41.874;12.526;2022-12-29T06:51:46;11.50;91.30
40538;DHT22;27925;41.874;12.526;2022-12-29T06:54:12;11.50;91.30
40538;DHT22;27925;41.874;12.526;2022-12-29T06:56:38;11.60;91.50
40538;DHT22;27925;41.874;12.526;2022-12-29T06:59:04;11.60;91.30
40538;DHT22;27925;41.874;12.526;2022-12-29T07:01:30;11.60;91.50
40538;DHT22;27925;41.874;12.526;2022-12-29T07:03:56;11.60;91.40
40538;DHT22;27925;41.874;12.526;2022-12-29T07:06:23;11.60;91.40
40538;DHT22;27925;41.874;12.526;2022-12-29T07:08:49;11.70;91.30
40538;DHT22;27925;41.874;12.526;2022-12-29T07:11:14;11.70;91.30
40538;DHT22;27925;41.874;12.526;2022-12-29T07:13:40;11.80;91.30
40538;DHT22;27925;41.874;12.526;2022-12-29T07:16:09;11.90;91.20
40538;DHT22;27925;41.874;12.526;2022-12-29T07:18:36;11.90;91.20
40538;DHT22;27925;41.874;12.526;2022-12-29T07:21:02;12.00;91.10
40538;DHT22;27925;41.874;12.526;2022-12-29T07:23:28;12.00;91.00
40538;DHT22;27925;41.874;12.526;2022-12-29T07:26:05;12.00;91.00
40538;DHT22;27925;41.874;12.526;2022-12-29T07:28:31;12.10;91.00
40538;DHT22;27925;41.874;12.526;2022-12-29T07:30:58;12.20;91.00
40538;DHT22;27925;41.874;12.526;2022-12-29T07:33:24;12.20;90.90
40538;DHT22;27925;41.874;12.526;2022-12-29T07:35:50;12.30;91.00
40538;DHT22;27925;41.874;12.526;2022-12-29T07:38:16;12.40;91.00
40538;DHT22;27925;41.874;12.526;2022-12-29T07:40:43;12.50;90.80
40538;DHT22;27925;41.874;12.526;2022-12-29T07:43:08;12.50;90.80
40538;DHT22;27925;41.874;12.526;2022-12-29T07:45:34;12.60;90.70
40538;DHT22;27925;41.874;12.526;2022-12-29T07:48:00;12.60;90.70
40538;DHT22;27925;41.874;12.526;2022-12-29T07:50:28;12.60;90.70
40538;DHT22;27925;41.874;12.526;2022-12-29T07:52:53;12.70;90.70
40538;DHT22;27925;41.874;12.526;2022-12-29T07:55:19;12.80;90.70
40538;DHT22;27925;41.874;12.526;2022-12-29T07:57:45;12.80;90.60
40538;DHT22;27925;41.874;12.526;2022-12-29T08:00:11;12.80;90.50
40538;DHT22;27925;41.874;12.526;2022-12-29T08:02:37;12.80;90.60
40538;DHT22;27925;41.874;12.526;2022-12-29T08:05:03;12.80;90.60
40538;DHT22;27925;41.874;12.526;2022-12-29T08:07:28;12.80;90.60
40538;DHT22;27925;41.874;12.526;2022-12-29T08:09:54;12.80;90.70
40538;DHT22;27925;41.874;12.526;2022-12-29T08:12:20;12.80;90.70
40538;DHT22;27925;41.874;12.526;2022-12-29T08:14:45;12.80;90.60
40538;DHT22;27925;41.874;12.526;2022-12-29T08:17:11;12.80;90.60
40538;DHT22;27925;41.874;12.526;2022-12-29T08:19:37;12.80;90.80
40538;DHT22;27925;41.874;12.526;2022-12-29T08:22:03;12.90;90.60
40538;DHT22;27925;41.874;12.526;2022-12-29T08:24:29;12.90;90.60
40538;DHT22;27925;41.874;12.526;2022-12-29T08:26:55;12.90;90.60
40538;DHT22;27925;41.874;12.526;2022-12-29T08:29:21;13.00;90.70
40538;DHT22;27925;41.874;12.526;2022-12-29T08:31:47;13.00;90.60
40538;DHT22;27925;41.874;12.526;2022-12-29T08:34:14;13.10;90.70
40538;DHT22;27925;41.874;12.526;2022-12-29T08:36:40;13.10;90.50
40538;DHT22;27925;41.874;12.526;2022-12-29T08:39:06;13.20;90.50
40538;DHT22;27925;41.874;12.526;2022-12-29T08:41:31;13.30;90.40
40538;DHT22;27925;41.874;12.526;2022-12-29T08:43:57;13.50;90.30
40538;DHT22;27925;41.874;12.526;2022-12-29T08:46:23;13.60;90.20
40538;DHT22;27925;41.874;12.526;2022-12-29T08:48:48;13.70;90.10
40538;DHT22;27925;41.874;12.526;2022-12-29T08:51:14;13.80;90.10
40538;DHT22;27925;41.874;12.526;2022-12-29T08:53:40;13.90;90.00
40538;DHT22;27925;41.874;12.526;2022-12-29T08:56:06;14.00;90.00
40538;DHT22;27925;41.874;12.526;2022-12-29T08:58:33;14.10;90.00
40538;DHT22;27925;41.874;12.526;2022-12-29T09:00:59;14.10;89.70
40538;DHT22;27925;41.874;12.526;2022-12-29T09:03:26;14.20;89.80
40538;DHT22;27925;41.874;12.526;2022-12-29T09:05:53;14.30;89.80
40538;DHT22;27925;41.874;12.526;2022-12-29T09:08:19;14.30;89.80
40538;DHT22;27925;41.874;12.526;2022-12-29T09:10:45;14.40;89.50
40538;DHT22;27925;41.874;12.526;2022-12-29T09:13:12;14.50;89.20
40538;DHT22;27925;41.874;12.526;2022-12-29T09:15:39;14.60;89.40
40538;DHT22;27925;41.874;12.526;2022-12-29T09:18:06;14.70;89.30
40538;DHT22;27925;41.874;12.526;2022-12-29T09:20:32;14.90;89.40
40538;DHT22;27925;41.874;12.526;2022-12-29T09:22:58;14.90;89.00
40538;DHT22;27925;41.874;12.526;2022-12-29T09:25:24;15.00;89.10
40538;DHT22;27925;41.874;12.526;2022-12-29T09:27:51;15.10;88.90
40538;DHT22;27925;41.874;12.526;2022-12-29T09:30:19;15.20;89.20
40538;DHT22;27925;41.874;12.526;2022-12-29T09:32:45;15.30;89.00
40538;DHT22;27925;41.874;12.526;2022-12-29T09:35:11;15.40;88.80
40538;DHT22;27925;41.874;12.526;2022-12-29T09:37:37;15.50;89.50
40538;DHT22;27925;41.874;12.526;2022-12-29T09:40:04;15.50;88.70
40538;DHT22;27925;41.874;12.526;2022-12-29T09:48:55;15.50;88.50
40538;DHT22;27925;41.874;12.526;2022-12-29T09:51:25;15.60;88.90
40538;DHT22;27925;41.874;12.526;2022-12-29T09:53:56;15.70;88.80
40538;DHT22;27925;41.874;12.526;2022-12-29T09:56:23;15.70;88.80
40538;DHT22;27925;41.874;12.526;2022-12-29T09:59:02;15.80;88.90
40538;DHT22;27925;41.874;12.526;2022-12-29T10:01:31;15.80;88.50
40538;DHT22;27925;41.874;12.526;2022-12-29T10:03:59;15.90;88.70
40538;DHT22;27925;41.874;12.526;2022-12-29T10:09:14;16.00;88.40
40538;DHT22;27925;41.874;12.526;2022-12-29T10:14:35;16.20;87.70
40538;DHT22;27925;41.874;12.526;2022-12-29T10:20:13;16.50;87.20
40538;DHT22;27925;41.874;12.526;2022-12-29T10:25:57;16.70;86.70
40538;DHT22;27925;41.874;12.526;2022-12-29T10:28:43;16.80;86.30
40538;DHT22;27925;41.874;12.526;2022-12-29T10:31:21;16.90;85.90
40538;DHT22;27925;41.874;12.526;2022-12-29T10:33:51;17.10;84.70
40538;DHT22;27925;41.874;12.526;2022-12-29T10:36:27;17.10;84.60
40538;DHT22;27925;41.874;12.526;2022-12-29T10:44:00;17.10;84.20
40538;DHT22;27925;41.874;12.526;2022-12-29T10:46:33;17.10;83.90
40538;DHT22;27925;41.874;12.526;2022-12-29T10:48:59;17.10;83.50
40538;DHT22;27925;41.874;12.526;2022-12-29T10:51:36;17.20;82.30
40538;DHT22;27925;41.874;12.526;2022-12-29T10:56:45;17.30;82.90
40538;DHT22;27925;41.874;12.526;2022-12-29T10:59:26;17.50;82.20
40538;DHT22;27925;41.874;12.526;2022-12-29T11:04:46;17.60;81.90
40538;DHT22;27925;41.874;12.526;2022-12-29T11:07:17;17.60;82.00
40538;DHT22;27925;41.874;12.526;2022-12-29T11:09:44;17.60;82.10
40538;DHT22;27925;41.874;12.526;2022-12-29T11:17:47;17.70;81.80
40538;DHT22;27925;41.874;12.526;2022-12-29T11:20:30;17.70;81.80
40538;DHT22;27925;41.874;12.526;2022-12-29T11:22:58;17.70;81.60
40538;DHT22;27925;41.874;12.526;2022-12-29T11:25:24;17.70;81.30
40538;DHT22;27925;41.874;12.526;2022-12-29T11:28:14;17.80;81.30
40538;DHT22;27925;41.874;12.526;2022-12-29T11:30:41;17.80;81.10
40538;DHT22;27925;41.874;12.526;2022-12-29T11:33:08;17.70;81.50
40538;DHT22;27925;41.874;12.526;2022-12-29T11:35:44;17.70;81.60
40538;DHT22;27925;41.874;12.526;2022-12-29T11:38:22;17.60;81.40
40538;DHT22;27925;41.874;12.526;2022-12-29T11:40:49;17.60;81.50
40538;DHT22;27925;41.874;12.526;2022-12-29T11:43:26;17.60;81.20
40538;DHT22;27925;41.874;12.526;2022-12-29T11:45:55;17.70;80.90
40538;DHT22;27925;41.874;12.526;2022-12-29T11:48:22;17.70;80.70
40538;DHT22;27925;41.874;12.526;2022-12-29T11:50:55;17.80;80.70
40538;DHT22;27925;41.874;12.526;2022-12-29T11:53:28;17.80;80.50
40538;DHT22;27925;41.874;12.526;2022-12-29T11:56:08;17.80;80.60
40538;DHT22;27925;41.874;12.526;2022-12-29T11:58:37;17.70;80.20
40538;DHT22;27925;41.874;12.526;2022-12-29T12:01:32;17.70;80.10
40538;DHT22;27925;41.874;12.526;2022-12-29T12:04:17;17.90;79.80
40538;DHT22;27925;41.874;12.526;2022-12-29T12:06:53;18.00;79.60
40538;DHT22;27925;41.874;12.526;2022-12-29T12:09:29;18.10;78.90
40538;DHT22;27925;41.874;12.526;2022-12-29T12:11:57;18.10;78.70
40538;DHT22;27925;41.874;12.526;2022-12-29T12:14:36;18.10;78.60
40538;DHT22;27925;41.874;12.526;2022-12-29T12:17:17;18.10;78.80
40538;DHT22;27925;41.874;12.526;2022-12-29T12:19:54;18.10;78.70
40538;DHT22;27925;41.874;12.526;2022-12-29T12:22:35;18.00;78.40
40538;DHT22;27925;41.874;12.526;2022-12-29T12:27:43;17.90;78.70
40538;DHT22;27925;41.874;12.526;2022-12-29T12:30:19;17.90;78.60
40538;DHT22;27925;41.874;12.526;2022-12-29T12:33:05;17.90;78.40
40538;DHT22;27925;41.874;12.526;2022-12-29T12:38:40;18.00;78.30
40538;DHT22;27925;41.874;12.526;2022-12-29T12:43:46;18.00;78.00
40538;DHT22;27925;41.874;12.526;2022-12-29T12:54:33;18.00;77.20
40538;DHT22;27925;41.874;12.526;2022-12-29T12:59:58;18.10;77.30
40538;DHT22;27925;41.874;12.526;2022-12-29T13:07:46;18.10;76.70
40538;DHT22;27925;41.874;12.526;2022-12-29T13:13:09;18.10;76.40
40538;DHT22;27925;41.874;12.526;2022-12-29T13:26:26;17.80;76.90
40538;DHT22;27925;41.874;12.526;2022-12-29T13:37:55;18.00;77.10
40538;DHT22;27925;41.874;12.526;2022-12-29T13:40:27;18.10;76.80
40538;DHT22;27925;41.874;12.526;2022-12-29T13:42:55;18.10;76.40
40538;DHT22;27925;41.874;12.526;2022-12-29T13:45:24;18.10;76.60
40538;DHT22;27925;41.874;12.526;2022-12-29T13:48:14;18.10;76.60
40538;DHT22;27925;41.874;12.526;2022-12-29T13:50:44;18.00;76.40
40538;DHT22;27925;41.874;12.526;2022-12-29T13:59:12;17.90;76.60
40538;DHT22;27925;41.874;12.526;2022-12-29T14:04:30;18.00;76.40
40538;DHT22;27925;41.874;12.526;2022-12-29T14:07:12;18.10;76.10
40538;DHT22;27925;41.874;12.526;2022-12-29T14:09:47;18.10;76.20
40538;DHT22;27925;41.874;12.526;2022-12-29T14:12:36;18.00;76.40
40538;DHT22;27925;41.874;12.526;2022-12-29T14:17:37;17.80;77.00
40538;DHT22;27925;41.874;12.526;2022-12-29T14:20:04;17.70;77.20
40538;DHT22;27925;41.874;12.526;2022-12-29T14:22:33;17.60;77.60
40538;DHT22;27925;41.874;12.526;2022-12-29T14:24:59;17.50;77.60
40538;DHT22;27925;41.874;12.526;2022-12-29T14:29:53;17.40;78.20
40538;DHT22;27925;41.874;12.526;2022-12-29T14:34:58;17.20;78.40
40538;DHT22;27925;41.874;12.526;2022-12-29T14:37:27;17.20;78.70
40538;DHT22;27925;41.874;12.526;2022-12-29T14:40:19;17.10;78.80
40538;DHT22;27925;41.874;12.526;2022-12-29T14:42:46;17.10;79.00
